TVS456P LKPR-LFKJ
Flight info
| Callsign | TVS456P |
|---|---|
| Flight time | 1h 35m |
| Altitude | 8000 |
| Route | DOBEN P861 RUDAP/N0440F380 P31 DOSEL/N0440F370 M736 OLPIX/N0361F190 M736 OZE T897 IDREK DCT TORTU |
| Aircraft | B738/M-SDE3FGHIJ1RWXY/LB1 |
Departure
| Time | 2026-04-26 09:15 |
|---|---|
| Airport | Václav Havel Airport Prague (LKPR) |
Arrival
| Time | 2026-04-26 10:51 |
|---|---|
| Airport | Ajaccio Napoléon Bonaparte airport (LFKJ) |
| Time | Latitude | Longitude | Altitude | Speed | Heading |
|---|---|---|---|---|---|
| 2026-04-26 08:45 | 50.10461 | 14.26533 | 1169 ft | 0 kts | 34° |
| 2026-04-26 09:06 | 50.10455 | 14.26526 | 1168 ft | 4 kts | 34° |
| 2026-04-26 09:06 | 50.10437 | 14.26505 | 1168 ft | 2 kts | 50° |
| 2026-04-26 09:07 | 50.10432 | 14.26489 | 1168 ft | 2 kts | 97° |
| 2026-04-26 09:07 | 50.10435 | 14.26473 | 1169 ft | 2 kts | 119° |
| 2026-04-26 09:07 | 50.10441 | 14.26458 | 1169 ft | 2 kts | 123° |
| 2026-04-26 09:07 | 50.10447 | 14.26444 | 1168 ft | 0 kts | 125° |
| 2026-04-26 09:08 | 50.10447 | 14.26445 | 1173 ft | 0 kts | 125° |
| 2026-04-26 09:08 | 50.10446 | 14.26447 | 1173 ft | 0 kts | 125° |
| 2026-04-26 09:09 | 50.10444 | 14.26451 | 1171 ft | 1 kts | 126° |
| 2026-04-26 09:09 | 50.10442 | 14.26454 | 1171 ft | 1 kts | 127° |
| 2026-04-26 09:09 | 50.10440 | 14.26459 | 1172 ft | 1 kts | 122° |
| 2026-04-26 09:09 | 50.10413 | 14.26521 | 1170 ft | 11 kts | 124° |
| 2026-04-26 09:10 | 50.10372 | 14.26610 | 1173 ft | 7 kts | 136° |
| 2026-04-26 09:10 | 50.10348 | 14.26613 | 1171 ft | 4 kts | 193° |
| 2026-04-26 09:10 | 50.10318 | 14.26588 | 1168 ft | 7 kts | 213° |
| 2026-04-26 09:10 | 50.10266 | 14.26536 | 1174 ft | 11 kts | 208° |
| 2026-04-26 09:11 | 50.10236 | 14.26534 | 1175 ft | 4 kts | 152° |
| 2026-04-26 09:11 | 50.10193 | 14.26610 | 1176 ft | 16 kts | 129° |
| 2026-04-26 09:11 | 50.10109 | 14.26780 | 1183 ft | 21 kts | 128° |
| 2026-04-26 09:11 | 50.10025 | 14.26955 | 1194 ft | 20 kts | 127° |
| 2026-04-26 09:12 | 50.09941 | 14.27130 | 1199 ft | 20 kts | 127° |
| 2026-04-26 09:12 | 50.09862 | 14.27294 | 1201 ft | 19 kts | 129° |
| 2026-04-26 09:12 | 50.09770 | 14.27436 | 1204 ft | 18 kts | 136° |
| 2026-04-26 09:12 | 50.09682 | 14.27573 | 1206 ft | 17 kts | 134° |
| 2026-04-26 09:13 | 50.09618 | 14.27645 | 1209 ft | 6 kts | 180° |
| 2026-04-26 09:13 | 50.09594 | 14.27628 | 1210 ft | 6 kts | 215° |
| 2026-04-26 09:13 | 50.09551 | 14.27579 | 1212 ft | 10 kts | 216° |
| 2026-04-26 09:13 | 50.09495 | 14.27515 | 1211 ft | 0 kts | 217° |
| 2026-04-26 09:14 | 50.09487 | 14.27506 | 1211 ft | 3 kts | 217° |
| 2026-04-26 09:14 | 50.09455 | 14.27469 | 1209 ft | 7 kts | 216° |
| 2026-04-26 09:14 | 50.09426 | 14.27407 | 1209 ft | 4 kts | 264° |
| 2026-04-26 09:14 | 50.09437 | 14.27358 | 1208 ft | 5 kts | 302° |
| 2026-04-26 09:15 | 50.09473 | 14.27281 | 1206 ft | 24 kts | 306° |
| 2026-04-26 09:15 | 50.09762 | 14.26685 | 1206 ft | 112 kts | 307° |
| 2026-04-26 09:15 | 50.10362 | 14.25471 | 1549 ft | 152 kts | 310° |
| 2026-04-26 09:15 | 50.10989 | 14.24179 | 2751 ft | 150 kts | 306° |
| 2026-04-26 09:16 | 50.11628 | 14.22828 | 3605 ft | 167 kts | 308° |
| 2026-04-26 09:16 | 50.12399 | 14.21223 | 4068 ft | 202 kts | 309° |
| 2026-04-26 09:16 | 50.13301 | 14.19343 | 4457 ft | 226 kts | 309° |
| 2026-04-26 09:16 | 50.14264 | 14.17345 | 5229 ft | 232 kts | 309° |
| 2026-04-26 09:17 | 50.15013 | 14.15789 | 5847 ft | 239 kts | 309° |
| 2026-04-26 09:17 | 50.16049 | 14.13640 | 6523 ft | 254 kts | 309° |
| 2026-04-26 09:17 | 50.17117 | 14.11423 | 7609 ft | 255 kts | 309° |
| 2026-04-26 09:17 | 50.17966 | 14.09011 | 8797 ft | 259 kts | 288° |
| 2026-04-26 09:18 | 50.18024 | 14.06167 | 9939 ft | 270 kts | 264° |
| 2026-04-26 09:18 | 50.17257 | 14.03400 | 10849 ft | 292 kts | 240° |
| 2026-04-26 09:18 | 50.15688 | 14.01079 | 11163 ft | 331 kts | 222° |
| 2026-04-26 09:18 | 50.13776 | 13.98942 | 11702 ft | 349 kts | 219° |
| 2026-04-26 09:19 | 50.11498 | 13.97406 | 12525 ft | 369 kts | 194° |
| 2026-04-26 09:19 | 50.08900 | 13.97377 | 13584 ft | 376 kts | 179° |
| 2026-04-26 09:19 | 50.06265 | 13.97637 | 14417 ft | 383 kts | 181° |
| 2026-04-26 09:19 | 50.03583 | 13.97794 | 15011 ft | 389 kts | 181° |
| 2026-04-26 09:20 | 50.00870 | 13.97911 | 15276 ft | 390 kts | 183° |
| 2026-04-26 09:20 | 49.98204 | 13.97328 | 15270 ft | 385 kts | 206° |
| 2026-04-26 09:20 | 49.95898 | 13.95294 | 15873 ft | 379 kts | 224° |
| 2026-04-26 09:20 | 49.94084 | 13.92414 | 16788 ft | 370 kts | 239° |
| 2026-04-26 09:21 | 49.92578 | 13.89147 | 17612 ft | 374 kts | 241° |
| 2026-04-26 09:21 | 49.91070 | 13.85814 | 18313 ft | 381 kts | 241° |
| 2026-04-26 09:21 | 49.89530 | 13.82423 | 18974 ft | 387 kts | 240° |
| 2026-04-26 09:21 | 49.87963 | 13.79012 | 19779 ft | 388 kts | 240° |
| 2026-04-26 09:22 | 49.86388 | 13.75613 | 20580 ft | 389 kts | 240° |
| 2026-04-26 09:22 | 49.84796 | 13.72197 | 21315 ft | 392 kts | 239° |
| 2026-04-26 09:22 | 49.83208 | 13.68799 | 22012 ft | 396 kts | 239° |
| 2026-04-26 09:22 | 49.81584 | 13.65328 | 22737 ft | 398 kts | 239° |
| 2026-04-26 09:23 | 49.79949 | 13.61842 | 23453 ft | 401 kts | 239° |
| 2026-04-26 09:23 | 49.78280 | 13.58365 | 24097 ft | 406 kts | 234° |
| 2026-04-26 09:23 | 49.76081 | 13.55523 | 24579 ft | 422 kts | 213° |
| 2026-04-26 09:23 | 49.73338 | 13.53791 | 25232 ft | 427 kts | 203° |
| 2026-04-26 09:24 | 49.70526 | 13.52289 | 25840 ft | 429 kts | 203° |
| 2026-04-26 09:24 | 49.67701 | 13.50759 | 26324 ft | 433 kts | 203° |
| 2026-04-26 09:24 | 49.64853 | 13.49198 | 26824 ft | 436 kts | 203° |
| 2026-04-26 09:24 | 49.62026 | 13.47633 | 27342 ft | 438 kts | 203° |
| 2026-04-26 09:25 | 49.59160 | 13.46039 | 27876 ft | 440 kts | 203° |
| 2026-04-26 09:25 | 49.56266 | 13.44425 | 28372 ft | 442 kts | 203° |
| 2026-04-26 09:25 | 49.53369 | 13.42809 | 28836 ft | 445 kts | 203° |
| 2026-04-26 09:25 | 49.50454 | 13.41184 | 29311 ft | 447 kts | 203° |
| 2026-04-26 09:26 | 49.47512 | 13.39547 | 29783 ft | 449 kts | 202° |
| 2026-04-26 09:26 | 49.44578 | 13.37917 | 30216 ft | 452 kts | 202° |
| 2026-04-26 09:26 | 49.41608 | 13.36269 | 30591 ft | 454 kts | 202° |
| 2026-04-26 09:26 | 49.38631 | 13.34620 | 30970 ft | 455 kts | 202° |
| 2026-04-26 09:27 | 49.35650 | 13.32972 | 31351 ft | 456 kts | 202° |
| 2026-04-26 09:27 | 49.32660 | 13.31319 | 31711 ft | 457 kts | 202° |
| 2026-04-26 09:27 | 49.29655 | 13.29660 | 32061 ft | 459 kts | 202° |
| 2026-04-26 09:27 | 49.26658 | 13.28009 | 32526 ft | 457 kts | 202° |
| 2026-04-26 09:28 | 49.23727 | 13.26367 | 33094 ft | 452 kts | 205° |
| 2026-04-26 09:28 | 49.20909 | 13.24349 | 33623 ft | 446 kts | 210° |
| 2026-04-26 09:28 | 49.18162 | 13.22135 | 34107 ft | 445 kts | 210° |
| 2026-04-26 09:28 | 49.15410 | 13.19968 | 34473 ft | 444 kts | 210° |
| 2026-04-26 09:29 | 49.12648 | 13.17848 | 34805 ft | 444 kts | 209° |
| 2026-04-26 09:29 | 49.09874 | 13.15764 | 35100 ft | 445 kts | 208° |
| 2026-04-26 09:29 | 49.07090 | 13.13704 | 35459 ft | 444 kts | 208° |
| 2026-04-26 09:29 | 49.04309 | 13.11658 | 35823 ft | 443 kts | 208° |
| 2026-04-26 09:30 | 49.01535 | 13.09617 | 36177 ft | 442 kts | 208° |
| 2026-04-26 09:30 | 48.98764 | 13.07576 | 36495 ft | 442 kts | 208° |
| 2026-04-26 09:30 | 48.95998 | 13.05539 | 36823 ft | 442 kts | 208° |
| 2026-04-26 09:30 | 48.93233 | 13.03500 | 37165 ft | 441 kts | 208° |
| 2026-04-26 09:31 | 48.90462 | 13.01459 | 37227 ft | 445 kts | 208° |
| 2026-04-26 09:31 | 48.84873 | 12.97348 | 37227 ft | 445 kts | 208° |
| 2026-04-26 09:32 | 48.79354 | 12.93303 | 37230 ft | 438 kts | 208° |
| 2026-04-26 09:32 | 48.73896 | 12.89193 | 37231 ft | 436 kts | 214° |
| 2026-04-26 09:33 | 48.69271 | 12.83480 | 37257 ft | 431 kts | 226° |
| 2026-04-26 09:33 | 48.64896 | 12.77249 | 37241 ft | 432 kts | 225° |
| 2026-04-26 09:34 | 48.60480 | 12.71123 | 37235 ft | 427 kts | 225° |
| 2026-04-26 09:34 | 48.56133 | 12.65090 | 37240 ft | 426 kts | 225° |
| 2026-04-26 09:35 | 48.51775 | 12.59022 | 37238 ft | 426 kts | 225° |
| 2026-04-26 09:35 | 48.47423 | 12.52979 | 37241 ft | 425 kts | 225° |
| 2026-04-26 09:36 | 48.43056 | 12.46946 | 37237 ft | 426 kts | 224° |
| 2026-04-26 09:36 | 48.38545 | 12.41130 | 37253 ft | 427 kts | 222° |
| 2026-04-26 09:37 | 48.33972 | 12.35393 | 37246 ft | 428 kts | 222° |
| 2026-04-26 09:37 | 48.29433 | 12.29670 | 37254 ft | 429 kts | 223° |
| 2026-04-26 09:38 | 48.24865 | 12.23887 | 37261 ft | 429 kts | 223° |
| 2026-04-26 09:38 | 48.20296 | 12.18107 | 37247 ft | 430 kts | 223° |
| 2026-04-26 09:39 | 48.15721 | 12.12331 | 37260 ft | 430 kts | 223° |
| 2026-04-26 09:39 | 48.11137 | 12.06560 | 37249 ft | 430 kts | 223° |
| 2026-04-26 09:40 | 48.06584 | 12.00842 | 37244 ft | 430 kts | 223° |
| 2026-04-26 09:40 | 48.02001 | 11.95100 | 37238 ft | 430 kts | 223° |
| 2026-04-26 09:41 | 47.97414 | 11.89364 | 37232 ft | 429 kts | 223° |
| 2026-04-26 09:41 | 47.92819 | 11.83679 | 37235 ft | 430 kts | 219° |
| 2026-04-26 09:41 | 47.90231 | 11.81419 | 37235 ft | 434 kts | 206° |
| 2026-04-26 09:42 | 47.87351 | 11.80017 | 37231 ft | 438 kts | 195° |
| 2026-04-26 09:42 | 47.84309 | 11.79500 | 37240 ft | 442 kts | 184° |
| 2026-04-26 09:42 | 47.81228 | 11.79421 | 37237 ft | 443 kts | 184° |
| 2026-04-26 09:43 | 47.75072 | 11.79181 | 37228 ft | 442 kts | 185° |
| 2026-04-26 09:43 | 47.68950 | 11.78834 | 37230 ft | 442 kts | 185° |
| 2026-04-26 09:44 | 47.62802 | 11.78489 | 37221 ft | 442 kts | 185° |
| 2026-04-26 09:44 | 47.56653 | 11.78148 | 37224 ft | 442 kts | 185° |
| 2026-04-26 09:45 | 47.50498 | 11.77803 | 37214 ft | 442 kts | 185° |
| 2026-04-26 09:45 | 47.44344 | 11.77466 | 37211 ft | 442 kts | 185° |
| 2026-04-26 09:46 | 47.38185 | 11.77126 | 37216 ft | 443 kts | 185° |
| 2026-04-26 09:46 | 47.32015 | 11.76772 | 37214 ft | 443 kts | 185° |
| 2026-04-26 09:47 | 47.25852 | 11.76399 | 37211 ft | 444 kts | 185° |
| 2026-04-26 09:47 | 47.19678 | 11.76028 | 37210 ft | 444 kts | 185° |
| 2026-04-26 09:48 | 47.13514 | 11.75623 | 37200 ft | 441 kts | 190° |
| 2026-04-26 09:48 | 47.07688 | 11.73222 | 37199 ft | 433 kts | 208° |
| 2026-04-26 09:49 | 47.02281 | 11.69384 | 37200 ft | 432 kts | 208° |
| 2026-04-26 09:49 | 46.96841 | 11.65724 | 37194 ft | 433 kts | 207° |
| 2026-04-26 09:50 | 46.91362 | 11.62075 | 37180 ft | 431 kts | 207° |
| 2026-04-26 09:50 | 46.85914 | 11.58443 | 37182 ft | 430 kts | 207° |
| 2026-04-26 09:51 | 46.80472 | 11.54820 | 37188 ft | 430 kts | 207° |
| 2026-04-26 09:51 | 46.75037 | 11.51205 | 37167 ft | 430 kts | 207° |
| 2026-04-26 09:52 | 46.69588 | 11.47591 | 37159 ft | 430 kts | 207° |
| 2026-04-26 09:52 | 46.61422 | 11.42163 | 37150 ft | 430 kts | 207° |
| 2026-04-26 09:53 | 46.55962 | 11.38534 | 37135 ft | 432 kts | 207° |
| 2026-04-26 09:53 | 46.50485 | 11.34902 | 37123 ft | 433 kts | 207° |
| 2026-04-26 09:54 | 46.45024 | 11.31378 | 37122 ft | 434 kts | 204° |
| 2026-04-26 09:54 | 46.39482 | 11.27959 | 37131 ft | 430 kts | 213° |
| 2026-04-26 09:55 | 46.34546 | 11.23149 | 37253 ft | 430 kts | 210° |
| 2026-04-26 09:55 | 46.29174 | 11.19320 | 37261 ft | 431 kts | 208° |
| 2026-04-26 09:56 | 46.23806 | 11.15438 | 37273 ft | 431 kts | 209° |
| 2026-04-26 09:56 | 46.18472 | 11.11490 | 37253 ft | 431 kts | 210° |
| 2026-04-26 09:57 | 46.13138 | 11.07538 | 37242 ft | 431 kts | 209° |
| 2026-04-26 09:57 | 46.07847 | 11.03475 | 37228 ft | 430 kts | 212° |
| 2026-04-26 09:58 | 46.02654 | 10.99196 | 37214 ft | 430 kts | 212° |
| 2026-04-26 09:58 | 45.97446 | 10.94933 | 37184 ft | 430 kts | 212° |
| 2026-04-26 09:59 | 45.93104 | 10.91420 | 37170 ft | 430 kts | 211° |
| 2026-04-26 09:59 | 45.87033 | 10.86528 | 37154 ft | 430 kts | 211° |
| 2026-04-26 10:00 | 45.81560 | 10.83058 | 37159 ft | 434 kts | 197° |
| 2026-04-26 10:00 | 45.76575 | 10.82095 | 37135 ft | 439 kts | 182° |
| 2026-04-26 10:01 | 45.70463 | 10.82077 | 37123 ft | 439 kts | 183° |
| 2026-04-26 10:01 | 45.66437 | 10.81662 | 37089 ft | 435 kts | 194° |
| 2026-04-26 10:01 | 45.63542 | 10.80527 | 37106 ft | 431 kts | 202° |
| 2026-04-26 10:02 | 45.59089 | 10.77311 | 37107 ft | 427 kts | 214° |
| 2026-04-26 10:02 | 45.54026 | 10.72860 | 37106 ft | 428 kts | 213° |
| 2026-04-26 10:03 | 45.48966 | 10.68474 | 37099 ft | 428 kts | 213° |
| 2026-04-26 10:03 | 45.43856 | 10.64088 | 37096 ft | 429 kts | 213° |
| 2026-04-26 10:04 | 45.38729 | 10.59707 | 37119 ft | 429 kts | 213° |
| 2026-04-26 10:04 | 45.33595 | 10.55331 | 37117 ft | 430 kts | 213° |
| 2026-04-26 10:05 | 45.28464 | 10.50968 | 37109 ft | 430 kts | 213° |
| 2026-04-26 10:05 | 45.23356 | 10.46631 | 37114 ft | 431 kts | 213° |
| 2026-04-26 10:06 | 45.18207 | 10.42270 | 37111 ft | 431 kts | 213° |
| 2026-04-26 10:06 | 45.13054 | 10.37913 | 37114 ft | 431 kts | 213° |
| 2026-04-26 10:07 | 45.07898 | 10.33564 | 37120 ft | 432 kts | 213° |
| 2026-04-26 10:07 | 45.02732 | 10.29216 | 37127 ft | 432 kts | 213° |
| 2026-04-26 10:08 | 44.97568 | 10.24879 | 37122 ft | 432 kts | 213° |
| 2026-04-26 10:08 | 44.92407 | 10.20552 | 37117 ft | 431 kts | 213° |
| 2026-04-26 10:09 | 44.87276 | 10.16261 | 37131 ft | 431 kts | 213° |
| 2026-04-26 10:09 | 44.82117 | 10.11955 | 37129 ft | 431 kts | 212° |
| 2026-04-26 10:10 | 44.76957 | 10.07657 | 37132 ft | 431 kts | 212° |
| 2026-04-26 10:10 | 44.71794 | 10.03365 | 37131 ft | 431 kts | 212° |
| 2026-04-26 10:11 | 44.66627 | 9.99080 | 37140 ft | 431 kts | 212° |
| 2026-04-26 10:11 | 44.61455 | 9.94799 | 37134 ft | 431 kts | 212° |
| 2026-04-26 10:12 | 44.56291 | 9.90534 | 37132 ft | 431 kts | 212° |
| 2026-04-26 10:12 | 44.51148 | 9.86295 | 37130 ft | 431 kts | 212° |
| 2026-04-26 10:13 | 44.45977 | 9.82041 | 37135 ft | 431 kts | 212° |
| 2026-04-26 10:13 | 44.40806 | 9.77797 | 37134 ft | 431 kts | 212° |
| 2026-04-26 10:14 | 44.35632 | 9.73557 | 37139 ft | 432 kts | 212° |
| 2026-04-26 10:14 | 44.30441 | 9.69314 | 37149 ft | 432 kts | 212° |
| 2026-04-26 10:15 | 44.25254 | 9.65084 | 37155 ft | 432 kts | 212° |
| 2026-04-26 10:15 | 44.20053 | 9.60850 | 37156 ft | 432 kts | 212° |
| 2026-04-26 10:16 | 44.14861 | 9.56632 | 37160 ft | 432 kts | 212° |
| 2026-04-26 10:16 | 44.09675 | 9.52427 | 37168 ft | 432 kts | 212° |
| 2026-04-26 10:17 | 44.04516 | 9.48253 | 37175 ft | 432 kts | 212° |
| 2026-04-26 10:17 | 43.99323 | 9.44060 | 37180 ft | 432 kts | 212° |
| 2026-04-26 10:18 | 43.94126 | 9.39872 | 37178 ft | 432 kts | 212° |
| 2026-04-26 10:18 | 43.88914 | 9.35681 | 37178 ft | 433 kts | 212° |
| 2026-04-26 10:19 | 43.83702 | 9.31499 | 37180 ft | 433 kts | 212° |
| 2026-04-26 10:19 | 43.78480 | 9.27316 | 37178 ft | 433 kts | 211° |
| 2026-04-26 10:20 | 43.74137 | 9.23845 | 37182 ft | 434 kts | 211° |
| 2026-04-26 10:20 | 43.68025 | 9.18968 | 37181 ft | 434 kts | 211° |
| 2026-04-26 10:21 | 43.62829 | 9.14832 | 37177 ft | 434 kts | 211° |
| 2026-04-26 10:21 | 43.57586 | 9.10667 | 37182 ft | 434 kts | 211° |
| 2026-04-26 10:22 | 43.52343 | 9.06510 | 37180 ft | 435 kts | 211° |
| 2026-04-26 10:22 | 43.47098 | 9.02359 | 37177 ft | 435 kts | 211° |
| 2026-04-26 10:23 | 43.41847 | 8.98211 | 37179 ft | 435 kts | 211° |
| 2026-04-26 10:23 | 43.36451 | 8.94468 | 37183 ft | 437 kts | 200° |
| 2026-04-26 10:24 | 43.30646 | 8.91973 | 37188 ft | 437 kts | 198° |
| 2026-04-26 10:24 | 43.24827 | 8.89536 | 37086 ft | 439 kts | 198° |
| 2026-04-26 10:25 | 43.21896 | 8.88275 | 36513 ft | 441 kts | 199° |
| 2026-04-26 10:25 | 43.18977 | 8.87000 | 35904 ft | 439 kts | 199° |
| 2026-04-26 10:25 | 43.16073 | 8.85721 | 35217 ft | 438 kts | 199° |
| 2026-04-26 10:25 | 43.13172 | 8.84438 | 34541 ft | 439 kts | 199° |
| 2026-04-26 10:26 | 43.10263 | 8.83149 | 33785 ft | 440 kts | 199° |
| 2026-04-26 10:26 | 43.07337 | 8.81853 | 33001 ft | 442 kts | 199° |
| 2026-04-26 10:26 | 43.04438 | 8.80571 | 32506 ft | 436 kts | 199° |
| 2026-04-26 10:26 | 43.01558 | 8.79301 | 31957 ft | 432 kts | 199° |
| 2026-04-26 10:27 | 42.98712 | 8.78047 | 31434 ft | 428 kts | 199° |
| 2026-04-26 10:27 | 42.95927 | 8.76820 | 30943 ft | 424 kts | 199° |
| 2026-04-26 10:27 | 42.93095 | 8.75575 | 30422 ft | 421 kts | 199° |
| 2026-04-26 10:27 | 42.90355 | 8.74370 | 29868 ft | 418 kts | 198° |
| 2026-04-26 10:28 | 42.87598 | 8.73159 | 29301 ft | 413 kts | 198° |
| 2026-04-26 10:28 | 42.84876 | 8.71965 | 28777 ft | 409 kts | 198° |
| 2026-04-26 10:28 | 42.82186 | 8.70786 | 28249 ft | 404 kts | 198° |
| 2026-04-26 10:28 | 42.79516 | 8.69617 | 27719 ft | 401 kts | 198° |
| 2026-04-26 10:29 | 42.76878 | 8.68463 | 27206 ft | 397 kts | 198° |
| 2026-04-26 10:29 | 42.74245 | 8.67313 | 26699 ft | 394 kts | 198° |
| 2026-04-26 10:29 | 42.71645 | 8.66178 | 26196 ft | 391 kts | 198° |
| 2026-04-26 10:29 | 42.69060 | 8.65050 | 25705 ft | 388 kts | 198° |
| 2026-04-26 10:30 | 42.66499 | 8.63934 | 25212 ft | 386 kts | 198° |
| 2026-04-26 10:30 | 42.63950 | 8.62824 | 24728 ft | 383 kts | 198° |
| 2026-04-26 10:30 | 42.61416 | 8.61721 | 24231 ft | 382 kts | 198° |
| 2026-04-26 10:30 | 42.58892 | 8.60623 | 23720 ft | 380 kts | 198° |
| 2026-04-26 10:31 | 42.56376 | 8.59530 | 23148 ft | 378 kts | 198° |
| 2026-04-26 10:31 | 42.53907 | 8.58459 | 22639 ft | 376 kts | 198° |
| 2026-04-26 10:31 | 42.51428 | 8.57383 | 22132 ft | 373 kts | 197° |
| 2026-04-26 10:31 | 42.48972 | 8.56319 | 21647 ft | 369 kts | 197° |
| 2026-04-26 10:32 | 42.46531 | 8.55262 | 21167 ft | 367 kts | 197° |
| 2026-04-26 10:32 | 42.44109 | 8.54214 | 20690 ft | 364 kts | 197° |
| 2026-04-26 10:32 | 42.41706 | 8.53175 | 20225 ft | 362 kts | 197° |
| 2026-04-26 10:32 | 42.39315 | 8.52143 | 19756 ft | 360 kts | 197° |
| 2026-04-26 10:33 | 42.36935 | 8.51116 | 19293 ft | 358 kts | 197° |
| 2026-04-26 10:33 | 42.34569 | 8.50095 | 18820 ft | 357 kts | 197° |
| 2026-04-26 10:33 | 42.32209 | 8.49079 | 18325 ft | 356 kts | 197° |
| 2026-04-26 10:33 | 42.29855 | 8.48064 | 17811 ft | 354 kts | 197° |
| 2026-04-26 10:34 | 42.27517 | 8.47058 | 17323 ft | 351 kts | 197° |
| 2026-04-26 10:34 | 42.25195 | 8.46060 | 16851 ft | 349 kts | 197° |
| 2026-04-26 10:34 | 42.22892 | 8.45071 | 16389 ft | 346 kts | 197° |
| 2026-04-26 10:34 | 42.20570 | 8.44302 | 15933 ft | 343 kts | 186° |
| 2026-04-26 10:35 | 42.18203 | 8.44119 | 15541 ft | 339 kts | 181° |
| 2026-04-26 10:35 | 42.15854 | 8.44008 | 15088 ft | 337 kts | 181° |
| 2026-04-26 10:35 | 42.13518 | 8.43881 | 14651 ft | 335 kts | 182° |
| 2026-04-26 10:35 | 42.11191 | 8.43736 | 14212 ft | 334 kts | 182° |
| 2026-04-26 10:36 | 42.08871 | 8.43576 | 13728 ft | 333 kts | 183° |
| 2026-04-26 10:36 | 42.06560 | 8.43408 | 13251 ft | 331 kts | 183° |
| 2026-04-26 10:36 | 42.04264 | 8.43238 | 12771 ft | 329 kts | 183° |
| 2026-04-26 10:36 | 42.02018 | 8.43069 | 12347 ft | 326 kts | 183° |
| 2026-04-26 10:37 | 41.99761 | 8.42898 | 11911 ft | 324 kts | 183° |
| 2026-04-26 10:37 | 41.97518 | 8.42729 | 11474 ft | 322 kts | 183° |
| 2026-04-26 10:37 | 41.95290 | 8.42562 | 11047 ft | 320 kts | 183° |
| 2026-04-26 10:37 | 41.93080 | 8.42396 | 10654 ft | 317 kts | 183° |
| 2026-04-26 10:38 | 41.90914 | 8.42233 | 10511 ft | 306 kts | 183° |
| 2026-04-26 10:38 | 41.88824 | 8.42076 | 10367 ft | 296 kts | 184° |
| 2026-04-26 10:38 | 41.86807 | 8.41925 | 10236 ft | 286 kts | 183° |
| 2026-04-26 10:38 | 41.84840 | 8.41777 | 9979 ft | 282 kts | 183° |
| 2026-04-26 10:39 | 41.82886 | 8.41631 | 9643 ft | 280 kts | 183° |
| 2026-04-26 10:39 | 41.80951 | 8.41485 | 9328 ft | 278 kts | 183° |
| 2026-04-26 10:39 | 41.79024 | 8.41341 | 9016 ft | 276 kts | 183° |
| 2026-04-26 10:39 | 41.77111 | 8.41205 | 8714 ft | 274 kts | 183° |
| 2026-04-26 10:40 | 41.75223 | 8.41066 | 8695 ft | 270 kts | 183° |
| 2026-04-26 10:40 | 41.73378 | 8.40927 | 8675 ft | 260 kts | 183° |
| 2026-04-26 10:40 | 41.71616 | 8.40795 | 8664 ft | 247 kts | 183° |
| 2026-04-26 10:40 | 41.69940 | 8.40670 | 8620 ft | 236 kts | 183° |
| 2026-04-26 10:41 | 41.68311 | 8.40550 | 8418 ft | 234 kts | 183° |
| 2026-04-26 10:41 | 41.66679 | 8.40433 | 8097 ft | 236 kts | 181° |
| 2026-04-26 10:41 | 41.65046 | 8.40852 | 7426 ft | 252 kts | 150° |
| 2026-04-26 10:41 | 41.63850 | 8.42626 | 6829 ft | 264 kts | 116° |
| 2026-04-26 10:42 | 41.63069 | 8.44809 | 6519 ft | 264 kts | 116° |
| 2026-04-26 10:42 | 41.62539 | 8.46302 | 6290 ft | 263 kts | 110° |
| 2026-04-26 10:42 | 41.62509 | 8.49449 | 5967 ft | 257 kts | 70° |
| 2026-04-26 10:42 | 41.63333 | 8.51528 | 5809 ft | 250 kts | 56° |
| 2026-04-26 10:43 | 41.64335 | 8.53417 | 5547 ft | 248 kts | 53° |
| 2026-04-26 10:43 | 41.65334 | 8.55259 | 5412 ft | 241 kts | 54° |
| 2026-04-26 10:43 | 41.66296 | 8.57056 | 5290 ft | 234 kts | 54° |
| 2026-04-26 10:43 | 41.67250 | 8.58805 | 5042 ft | 233 kts | 53° |
| 2026-04-26 10:44 | 41.68210 | 8.60545 | 4810 ft | 231 kts | 53° |
| 2026-04-26 10:44 | 41.68973 | 8.61933 | 4610 ft | 230 kts | 53° |
| 2026-04-26 10:44 | 41.69772 | 8.63395 | 4400 ft | 229 kts | 53° |
| 2026-04-26 10:44 | 41.70696 | 8.65086 | 4198 ft | 221 kts | 53° |
| 2026-04-26 10:45 | 41.71600 | 8.66713 | 3944 ft | 215 kts | 49° |
| 2026-04-26 10:45 | 41.72772 | 8.67866 | 3706 ft | 206 kts | 23° |
| 2026-04-26 10:45 | 41.74037 | 8.68636 | 3550 ft | 196 kts | 26° |
| 2026-04-26 10:45 | 41.75185 | 8.69416 | 3504 ft | 182 kts | 25° |
| 2026-04-26 10:46 | 41.76304 | 8.70140 | 3277 ft | 171 kts | 24° |
| 2026-04-26 10:46 | 41.77327 | 8.70788 | 3067 ft | 153 kts | 23° |
| 2026-04-26 10:46 | 41.78250 | 8.71370 | 2854 ft | 141 kts | 24° |
| 2026-04-26 10:46 | 41.79122 | 8.71926 | 2679 ft | 137 kts | 23° |
| 2026-04-26 10:47 | 41.79985 | 8.72455 | 2525 ft | 142 kts | 24° |
| 2026-04-26 10:47 | 41.80899 | 8.73034 | 2309 ft | 146 kts | 23° |
| 2026-04-26 10:47 | 41.81807 | 8.73604 | 2110 ft | 141 kts | 23° |
| 2026-04-26 10:47 | 41.82681 | 8.74152 | 1928 ft | 137 kts | 23° |
| 2026-04-26 10:48 | 41.83548 | 8.74695 | 1756 ft | 138 kts | 23° |
| 2026-04-26 10:48 | 41.84427 | 8.75245 | 1568 ft | 141 kts | 23° |
| 2026-04-26 10:48 | 41.85300 | 8.75793 | 1341 ft | 134 kts | 23° |
| 2026-04-26 10:48 | 41.86145 | 8.76325 | 1158 ft | 136 kts | 22° |
| 2026-04-26 10:49 | 41.86997 | 8.76860 | 966 ft | 136 kts | 22° |
| 2026-04-26 10:49 | 41.87843 | 8.77389 | 802 ft | 133 kts | 24° |
| 2026-04-26 10:49 | 41.88397 | 8.77750 | 758 ft | 133 kts | 25° |
| 2026-04-26 10:49 | 41.89246 | 8.78294 | 567 ft | 134 kts | 25° |
| 2026-04-26 10:50 | 41.90101 | 8.78825 | 333 ft | 137 kts | 23° |
| 2026-04-26 10:50 | 41.90961 | 8.79356 | 100 ft | 132 kts | 22° |
| 2026-04-26 10:50 | 41.91770 | 8.79855 | 24 ft | 115 kts | 25° |
| 2026-04-26 10:50 | 41.92359 | 8.80222 | 27 ft | 71 kts | 25° |
| 2026-04-26 10:51 | 41.92665 | 8.80412 | 26 ft | 30 kts | 26° |
| 2026-04-26 10:51 | 41.92773 | 8.80412 | 28 ft | 7 kts | 305° |
| 2026-04-26 10:51 | 41.92801 | 8.80342 | 28 ft | 10 kts | 297° |
| 2026-04-26 10:52 | 41.92831 | 8.80255 | 28 ft | 6 kts | 282° |
| 2026-04-26 10:52 | 41.92815 | 8.80211 | 27 ft | 5 kts | 225° |
| 2026-04-26 10:52 | 41.92787 | 8.80175 | 27 ft | 6 kts | 220° |
| 2026-04-26 10:52 | 41.92743 | 8.80134 | 28 ft | 10 kts | 211° |
| 2026-04-26 10:53 | 41.92656 | 8.80076 | 26 ft | 17 kts | 205° |
| 2026-04-26 10:53 | 41.92556 | 8.80023 | 27 ft | 13 kts | 211° |
| 2026-04-26 10:53 | 41.92477 | 8.79968 | 26 ft | 13 kts | 206° |
| 2026-04-26 10:54 | 41.92321 | 8.79868 | 24 ft | 12 kts | 205° |
| 2026-04-26 10:54 | 41.92246 | 8.79820 | 24 ft | 12 kts | 205° |
| 2026-04-26 10:54 | 41.92172 | 8.79775 | 26 ft | 11 kts | 204° |
| 2026-04-26 10:54 | 41.92101 | 8.79733 | 27 ft | 11 kts | 204° |
| 2026-04-26 10:55 | 41.92032 | 8.79692 | 24 ft | 11 kts | 203° |
| 2026-04-26 10:55 | 41.91968 | 8.79647 | 25 ft | 10 kts | 205° |
| 2026-04-26 10:55 | 41.91904 | 8.79609 | 28 ft | 10 kts | 204° |
| 2026-04-26 10:55 | 41.91884 | 8.79594 | 24 ft | 2 kts | 223° |
| 2026-04-26 10:56 | 41.91883 | 8.79571 | 24 ft | 3 kts | 281° |
| 2026-04-26 10:56 | 41.91897 | 8.79547 | 25 ft | 3 kts | 314° |
| 2026-04-26 10:56 | 41.91905 | 8.79535 | 28 ft | 0 kts | 311° |